createdAt,value
2022-12-24T00:00:02.339Z,99985.78
2022-12-24T00:02:28.740Z,99948.56
2022-12-24T00:05:00.609Z,100017.13
2022-12-24T00:07:27.689Z,100015.63
2022-12-24T00:09:54.093Z,100018.81
2022-12-24T00:12:20.464Z,99975.78
2022-12-24T00:14:46.960Z,100021.72
2022-12-24T00:17:13.552Z,99993.72
2022-12-24T00:19:39.980Z,99946.03
2022-12-24T00:22:06.310Z,100000.00
2022-12-24T00:24:32.665Z,100010.38
2022-12-24T00:26:59.089Z,100014.88
2022-12-24T00:29:25.573Z,99963.66
2022-12-24T00:31:52.057Z,100034.38
2022-12-24T00:34:18.488Z,99976.28
2022-12-24T00:36:44.908Z,100031.44
2022-12-24T00:39:11.293Z,99966.22
2022-12-24T00:41:37.675Z,99982.94
2022-12-24T00:44:06.694Z,100054.28
2022-12-24T00:46:34.349Z,100065.59
2022-12-24T00:49:01.482Z,100078.94
2022-12-24T00:51:28.490Z,100009.16
2022-12-24T00:53:54.968Z,100080.16
2022-12-24T00:56:21.572Z,100084.47
2022-12-24T00:58:48.443Z,100094.16
2022-12-24T01:01:15.419Z,100015.31
2022-12-24T01:03:42.073Z,99994.53
2022-12-24T01:06:21.198Z,100099.16
2022-12-24T01:08:51.314Z,100106.81
2022-12-24T01:11:18.118Z,100043.38
2022-12-24T01:13:44.493Z,100045.56
2022-12-24T01:16:19.745Z,100114.72
2022-12-24T01:18:46.564Z,100005.59
2022-12-24T01:21:12.939Z,100125.25
2022-12-24T01:23:39.363Z,100023.56
2022-12-24T01:26:05.853Z,100055.59
2022-12-24T01:28:32.926Z,100113.22
2022-12-24T01:30:59.513Z,100023.41
2022-12-24T01:33:30.310Z,100137.03
2022-12-24T01:35:56.758Z,100056.53
2022-12-24T01:38:23.161Z,100094.44
2022-12-24T01:41:08.306Z,100031.75
2022-12-24T01:43:34.820Z,100045.84
2022-12-24T01:46:11.933Z,100087.16
2022-12-24T01:48:45.286Z,100042.88
2022-12-24T01:51:26.839Z,100134.81
2022-12-24T01:53:59.910Z,100048.19
2022-12-24T01:56:28.788Z,100081.59
2022-12-24T01:58:59.741Z,100052.31
2022-12-24T02:01:28.601Z,100028.44
2022-12-24T02:03:55.042Z,100049.53
2022-12-24T02:06:22.414Z,100116.97
2022-12-24T02:08:48.888Z,100049.41
2022-12-24T02:11:22.040Z,100148.22
2022-12-24T02:13:52.423Z,100006.22
2022-12-24T02:16:40.441Z,100171.41
2022-12-24T02:19:37.851Z,100176.41
2022-12-24T02:22:10.223Z,100066.75
2022-12-24T02:24:54.526Z,100172.47
2022-12-24T02:27:34.553Z,100151.84
2022-12-24T02:30:07.049Z,100189.63
2022-12-24T02:32:36.319Z,100146.78
2022-12-24T02:35:08.746Z,100191.16
2022-12-24T02:37:43.871Z,100114.16
2022-12-24T02:40:25.293Z,100191.25
2022-12-24T02:42:57.710Z,100194.56
2022-12-24T02:45:36.145Z,100149.88
2022-12-24T02:48:02.881Z,100201.09
2022-12-24T02:50:29.439Z,100186.88
2022-12-24T02:52:55.870Z,100213.69
2022-12-24T02:55:36.832Z,100122.44
2022-12-24T02:58:09.317Z,100209.38
2022-12-24T03:01:16.196Z,100176.28
2022-12-24T03:04:04.558Z,100213.47
2022-12-24T03:06:48.572Z,100115.31
2022-12-24T03:09:25.457Z,100206.44
2022-12-24T03:12:05.382Z,100204.63
2022-12-24T03:14:34.668Z,100171.44
2022-12-24T03:17:03.420Z,100158.03
2022-12-24T03:19:31.458Z,100200.91
2022-12-24T03:22:00.734Z,100158.13
2022-12-24T03:24:27.154Z,100177.03
2022-12-24T03:26:53.603Z,100194.25
2022-12-24T03:29:20.339Z,100220.94
2022-12-24T03:31:49.390Z,100152.19
2022-12-24T03:34:16.973Z,100208.75
2022-12-24T03:36:43.557Z,100150.88
2022-12-24T03:39:10.395Z,100133.84
2022-12-24T03:41:37.812Z,100212.09
2022-12-24T03:44:04.836Z,100212.13
2022-12-24T03:46:31.171Z,100119.78
2022-12-24T03:48:58.218Z,100212.97
2022-12-24T03:51:25.564Z,100222.25
2022-12-24T03:53:53.383Z,100236.53
2022-12-24T03:56:20.507Z,100231.13
2022-12-24T03:58:47.296Z,100169.19
2022-12-24T04:01:13.996Z,100222.75
2022-12-24T04:03:40.410Z,100191.53
2022-12-24T04:06:09.765Z,100249.75
2022-12-24T04:08:37.083Z,100239.13
2022-12-24T04:11:10.143Z,100167.47
2022-12-24T04:13:37.357Z,100239.34
2022-12-24T04:16:07.186Z,100225.28
2022-12-24T04:18:34.535Z,100183.00
2022-12-24T04:21:00.879Z,100185.16
2022-12-24T04:23:30.015Z,100224.59
2022-12-24T04:25:56.460Z,100123.88
2022-12-24T04:28:22.807Z,100236.28
2022-12-24T04:30:49.147Z,100235.34
2022-12-24T04:33:15.764Z,100151.69
2022-12-24T04:35:42.457Z,100258.91
2022-12-24T04:38:09.921Z,100272.81
2022-12-24T04:40:36.460Z,100255.22
2022-12-24T04:43:02.822Z,100189.03
2022-12-24T04:45:29.207Z,100268.97
2022-12-24T04:47:55.570Z,100218.44
2022-12-24T04:50:22.157Z,100235.06
2022-12-24T04:52:48.646Z,100157.94
2022-12-24T04:55:15.076Z,100257.47
2022-12-24T04:57:41.762Z,100250.44
2022-12-24T05:00:08.868Z,100231.41
2022-12-24T05:02:35.343Z,100258.03
2022-12-24T05:05:01.999Z,100213.59
2022-12-24T05:07:28.421Z,100290.63
2022-12-24T05:09:54.857Z,100264.91
2022-12-24T05:12:23.429Z,100286.34
2022-12-24T05:14:49.816Z,100173.63
2022-12-24T05:17:16.204Z,100171.03
2022-12-24T05:19:42.619Z,100200.50
2022-12-24T05:22:27.691Z,100287.13
2022-12-24T05:25:12.395Z,100257.38
2022-12-24T05:27:38.767Z,100258.28
2022-12-24T05:30:05.835Z,100233.63
2022-12-24T05:32:32.319Z,100207.00
2022-12-24T05:34:58.666Z,100205.03
2022-12-24T05:37:25.002Z,100295.88
2022-12-24T05:39:51.430Z,100229.81
2022-12-24T05:42:17.845Z,100275.94
2022-12-24T05:44:44.259Z,100271.09
2022-12-24T05:47:10.727Z,100241.53
2022-12-24T05:49:37.127Z,100265.22
2022-12-24T05:52:04.463Z,100324.06
2022-12-24T05:54:30.864Z,100287.72
2022-12-24T05:56:57.218Z,100290.69
2022-12-24T05:59:23.682Z,100263.69
2022-12-24T06:01:50.199Z,100315.16
2022-12-24T06:04:16.701Z,100339.59
2022-12-24T06:06:43.372Z,100258.69
2022-12-24T06:09:09.752Z,100327.34
2022-12-24T06:11:36.094Z,100331.09
2022-12-24T06:14:02.524Z,100234.44
2022-12-24T06:16:28.913Z,100335.13
2022-12-24T06:18:55.693Z,100304.53
2022-12-24T06:21:22.528Z,100354.00
2022-12-24T06:23:48.963Z,100312.06
2022-12-24T06:26:20.544Z,100356.66
2022-12-24T06:28:49.755Z,100352.94
2022-12-24T06:31:18.670Z,100290.75
2022-12-24T06:33:45.195Z,100355.28
2022-12-24T06:36:18.152Z,100379.22
2022-12-24T06:38:46.431Z,100387.00
2022-12-24T06:41:13.120Z,100342.88
2022-12-24T06:43:40.159Z,100372.34
2022-12-24T06:46:06.631Z,100382.47
2022-12-24T06:48:32.990Z,100381.06
2022-12-24T06:51:02.349Z,100298.22
2022-12-24T06:53:28.802Z,100283.91
2022-12-24T06:56:03.438Z,100308.19
2022-12-24T06:58:30.291Z,100341.91
2022-12-24T07:00:57.016Z,100389.72
2022-12-24T07:03:23.447Z,100390.44
2022-12-24T07:05:49.854Z,100401.09
2022-12-24T07:08:16.204Z,100365.66
2022-12-24T07:10:42.566Z,100311.31
2022-12-24T07:13:08.904Z,100367.94
2022-12-24T07:15:35.367Z,100383.38
2022-12-24T07:18:01.688Z,100395.13
2022-12-24T07:20:28.056Z,100326.06
2022-12-24T07:22:54.388Z,100388.41
2022-12-24T07:25:20.743Z,100402.97
2022-12-24T07:27:47.121Z,100361.31
2022-12-24T07:30:15.893Z,100429.91
2022-12-24T07:32:44.627Z,100406.94
2022-12-24T07:35:11.117Z,100433.44
2022-12-24T07:37:38.020Z,100454.56
2022-12-24T07:40:07.978Z,100433.03
2022-12-24T07:42:34.335Z,100374.72
2022-12-24T07:45:02.599Z,100440.56
2022-12-24T07:47:32.081Z,100448.84
2022-12-24T07:49:58.445Z,100416.22
2022-12-24T07:52:24.763Z,100434.66
2022-12-24T07:54:51.240Z,100453.09
2022-12-24T07:57:17.599Z,100441.13
2022-12-24T07:59:43.950Z,100376.88
2022-12-24T08:02:17.738Z,100465.44
2022-12-24T08:04:44.736Z,100467.34
2022-12-24T08:07:11.148Z,100460.00
2022-12-24T08:09:39.622Z,100474.06
2022-12-24T08:12:06.298Z,100444.09
2022-12-24T08:14:32.720Z,100441.28
2022-12-24T08:16:59.170Z,100408.03
2022-12-24T08:19:25.509Z,100413.59
2022-12-24T08:21:51.875Z,100464.41
2022-12-24T08:24:18.189Z,100483.63
2022-12-24T08:26:44.604Z,100421.38
2022-12-24T08:29:11.772Z,100476.53
2022-12-24T08:31:38.267Z,100502.97
2022-12-24T08:34:06.397Z,100508.97
2022-12-24T08:36:34.083Z,100468.88
2022-12-24T08:39:03.436Z,100480.72
2022-12-24T08:41:31.062Z,100418.31
2022-12-24T08:43:57.465Z,100510.56
2022-12-24T08:46:23.866Z,100479.78
2022-12-24T08:48:50.300Z,100441.22
2022-12-24T08:51:16.833Z,100487.16
2022-12-24T08:53:43.164Z,100484.44
2022-12-24T08:56:10.659Z,100523.44
2022-12-24T08:58:37.195Z,100485.44
2022-12-24T09:01:11.658Z,100523.69
2022-12-24T09:03:38.197Z,100354.50
2022-12-24T09:06:05.631Z,100504.59
2022-12-24T09:08:33.091Z,100523.84
2022-12-24T09:11:07.445Z,100529.09
2022-12-24T09:13:33.827Z,100548.44
2022-12-24T09:16:00.233Z,100475.19
2022-12-24T09:18:26.961Z,100485.72
2022-12-24T09:20:59.579Z,100568.56
2022-12-24T09:23:26.001Z,100546.44
2022-12-24T09:25:52.369Z,100580.75
2022-12-24T09:28:18.891Z,100584.22
2022-12-24T09:30:45.210Z,100572.09
2022-12-24T09:33:12.003Z,100566.09
2022-12-24T09:35:38.895Z,100605.69
2022-12-24T09:38:05.266Z,100565.75
2022-12-24T09:40:40.835Z,100542.91
2022-12-24T09:43:16.968Z,100608.34
2022-12-24T09:45:55.594Z,100595.56
2022-12-24T09:48:28.207Z,100596.28
2022-12-24T09:51:13.092Z,100555.81
2022-12-24T09:53:49.833Z,100615.25
2022-12-24T09:56:20.116Z,100616.25
2022-12-24T09:58:55.502Z,100494.13
2022-12-24T10:01:21.950Z,100516.41
2022-12-24T10:03:48.594Z,100610.06
2022-12-24T10:06:49.940Z,100638.44
2022-12-24T10:09:43.122Z,100572.84
2022-12-24T10:12:20.535Z,100627.19
2022-12-24T10:15:14.213Z,100577.31
2022-12-24T10:17:53.095Z,100650.28
2022-12-24T10:20:54.077Z,100647.41
2022-12-24T10:24:00.600Z,100633.13
2022-12-24T10:26:35.504Z,100643.16
2022-12-24T10:29:11.899Z,100621.88
2022-12-24T10:31:50.041Z,100652.16
2022-12-24T10:34:23.473Z,100629.00
2022-12-24T10:36:49.891Z,100556.53
2022-12-24T10:39:27.220Z,100638.22
2022-12-24T10:41:57.593Z,100619.44
2022-12-24T10:44:27.671Z,100614.91
2022-12-24T10:46:54.545Z,100594.00
2022-12-24T10:49:23.875Z,100636.47
2022-12-24T10:51:55.187Z,100533.44
2022-12-24T10:54:27.864Z,100594.44
2022-12-24T10:56:59.969Z,100637.56
2022-12-24T10:59:28.857Z,100637.66
2022-12-24T11:01:57.563Z,100635.69
2022-12-24T11:04:27.371Z,100581.28
2022-12-24T11:07:01.390Z,100642.19
2022-12-24T11:09:32.245Z,100593.31
2022-12-24T11:12:05.378Z,100627.00
2022-12-24T11:14:38.750Z,100640.34
2022-12-24T11:17:05.829Z,100587.47
2022-12-24T11:19:34.927Z,100602.47
2022-12-24T11:22:04.584Z,100643.03
2022-12-24T11:24:37.053Z,100601.84
2022-12-24T11:27:23.297Z,100631.84
2022-12-24T11:29:49.715Z,100613.13
2022-12-24T11:32:41.518Z,100650.38
2022-12-24T11:39:23.270Z,100633.91
2022-12-24T11:42:02.631Z,100604.03
2022-12-24T11:44:29.018Z,100600.38
2022-12-24T11:50:41.916Z,100612.66
2022-12-24T11:57:37.872Z,100632.38
2022-12-24T12:00:30.561Z,100648.94
2022-12-24T12:03:48.151Z,100592.19
2022-12-24T12:06:31.339Z,100597.97
2022-12-24T12:09:05.811Z,100621.72
2022-12-24T12:11:35.427Z,100534.00
2022-12-24T12:14:03.837Z,100564.34
2022-12-24T12:17:05.377Z,100657.00
2022-12-24T12:20:58.603Z,100657.41
2022-12-24T12:23:32.865Z,100637.16
2022-12-24T12:26:01.482Z,100668.78
2022-12-24T12:28:42.977Z,100668.53
2022-12-24T12:31:15.758Z,100674.31
2022-12-24T12:34:11.260Z,100641.94
2022-12-24T12:36:48.349Z,100671.56
2022-12-24T12:39:15.189Z,100651.16
2022-12-24T12:42:02.347Z,100675.28
2022-12-24T12:44:38.291Z,100674.06
2022-12-24T12:47:07.688Z,100694.50
2022-12-24T12:49:40.195Z,100602.72
2022-12-24T12:52:09.557Z,100693.81
2022-12-24T12:55:06.312Z,100660.47
2022-12-24T12:57:36.764Z,100599.69
2022-12-24T13:00:09.696Z,100686.88
2022-12-24T13:03:00.956Z,100702.44
2022-12-24T13:05:51.845Z,100713.91
2022-12-24T13:08:34.460Z,100665.97
2022-12-24T13:11:11.023Z,100659.53
2022-12-24T13:14:15.057Z,100704.94
2022-12-24T13:17:17.793Z,100650.97
2022-12-24T13:20:05.422Z,100684.94
2022-12-24T13:22:31.859Z,100571.97
2022-12-24T13:24:58.396Z,100614.16
2022-12-24T13:27:27.465Z,100583.16
2022-12-24T13:29:57.076Z,100694.03
2022-12-24T13:32:23.917Z,100701.91
2022-12-24T13:34:52.351Z,100687.28
2022-12-24T13:37:39.033Z,100602.19
2022-12-24T13:40:08.634Z,100705.13
2022-12-24T13:43:04.638Z,100701.22
2022-12-24T13:45:35.371Z,100713.16
2022-12-24T13:48:28.153Z,100713.03
2022-12-24T13:50:58.008Z,100565.00
2022-12-24T13:53:33.028Z,100714.38
2022-12-24T13:56:05.690Z,100715.88
2022-12-24T13:58:33.428Z,100705.31
2022-12-24T14:01:10.844Z,100718.00
2022-12-24T14:03:45.004Z,100725.00
2022-12-24T14:06:22.800Z,100705.13
2022-12-24T14:08:53.228Z,100638.16
2022-12-24T14:11:21.925Z,100633.59
2022-12-24T14:13:48.324Z,100710.94
2022-12-24T14:16:14.665Z,100715.63
2022-12-24T14:18:48.870Z,100700.16
2022-12-24T14:21:23.504Z,100687.19
2022-12-24T14:24:06.791Z,100711.03
2022-12-24T14:26:36.495Z,100689.66
2022-12-24T14:29:21.283Z,100609.69
2022-12-24T14:31:53.171Z,100578.47
2022-12-24T14:34:19.886Z,100620.78
2022-12-24T14:36:49.047Z,100631.38
2022-12-24T14:39:26.279Z,100704.66
2022-12-24T14:42:30.049Z,100731.59
2022-12-24T14:45:07.472Z,100711.16
2022-12-24T14:47:44.740Z,100608.25
2022-12-24T14:50:26.734Z,100742.47
2022-12-24T14:53:19.600Z,100739.53
2022-12-24T14:55:48.412Z,100725.94
2022-12-24T14:58:25.405Z,100751.13
2022-12-24T15:00:54.209Z,100750.56
2022-12-24T15:03:24.149Z,100761.28
2022-12-24T15:05:54.342Z,100718.31
2022-12-24T15:08:36.728Z,100742.66
2022-12-24T15:11:07.078Z,100757.75
2022-12-24T15:13:40.274Z,100779.16
2022-12-24T15:16:12.906Z,100786.38
2022-12-24T15:18:48.081Z,100790.81
2022-12-24T15:21:19.740Z,100673.78
2022-12-24T15:23:49.450Z,100676.72
2022-12-24T15:26:44.691Z,100742.41
2022-12-24T15:29:21.344Z,100800.06
2022-12-24T15:31:59.665Z,100751.19
2022-12-24T15:34:40.772Z,100719.50
2022-12-24T15:37:23.764Z,100785.94
2022-12-24T15:39:55.707Z,100767.06
2022-12-24T15:42:24.052Z,100740.59
2022-12-24T15:45:04.509Z,100815.50
2022-12-24T15:47:38.251Z,100712.41
2022-12-24T15:50:13.908Z,100791.28
2022-12-24T15:52:41.529Z,100810.13
2022-12-24T15:55:26.407Z,100826.50
2022-12-24T15:57:52.823Z,100804.28
2022-12-24T16:00:24.835Z,100807.81
2022-12-24T16:02:51.851Z,100781.03
2022-12-24T16:05:21.499Z,100810.91
2022-12-24T16:08:09.585Z,100805.88
2022-12-24T16:10:42.984Z,100731.97
2022-12-24T16:13:17.950Z,100817.50
2022-12-24T16:16:00.238Z,100784.13
2022-12-24T16:18:33.677Z,100711.66
2022-12-24T16:21:00.329Z,100788.47
2022-12-24T16:23:37.156Z,100814.53
2022-12-24T16:26:03.752Z,100732.88
2022-12-24T16:28:31.340Z,100810.47
2022-12-24T16:30:57.942Z,100803.53
2022-12-24T16:33:24.427Z,100801.09
2022-12-24T16:35:50.895Z,100807.75
2022-12-24T16:38:17.253Z,100809.59
2022-12-24T16:40:43.990Z,100794.22
2022-12-24T16:43:29.484Z,100828.13
2022-12-24T16:46:02.258Z,100778.28
2022-12-24T16:48:29.809Z,100695.53
2022-12-24T16:50:56.669Z,100804.47
2022-12-24T16:53:23.393Z,100666.72
2022-12-24T16:55:51.448Z,100799.63
2022-12-24T16:58:18.427Z,100848.91
2022-12-24T17:00:45.118Z,100806.72
2022-12-24T17:03:12.605Z,100837.06
2022-12-24T17:05:43.865Z,100828.34
2022-12-24T17:08:10.809Z,100834.31
2022-12-24T17:10:37.259Z,100815.47
2022-12-24T17:13:04.432Z,100817.09
2022-12-24T17:15:31.089Z,100745.09
2022-12-24T17:17:57.751Z,100805.41
2022-12-24T17:20:24.761Z,100814.13
2022-12-24T17:22:51.483Z,100846.75
2022-12-24T17:25:18.158Z,100820.88
2022-12-24T17:27:44.573Z,100831.34
2022-12-24T17:30:11.268Z,100832.97
2022-12-24T17:32:37.733Z,100788.28
2022-12-24T17:35:04.572Z,100795.28
2022-12-24T17:37:30.939Z,100726.38
2022-12-24T17:39:57.360Z,100822.09
2022-12-24T17:42:23.791Z,100828.09
2022-12-24T17:44:52.029Z,100834.91
2022-12-24T17:47:19.410Z,100810.06
2022-12-24T17:49:45.764Z,100826.69
2022-12-24T17:52:12.201Z,100725.72
2022-12-24T17:54:38.578Z,100818.09
2022-12-24T17:57:04.974Z,100800.09
2022-12-24T17:59:31.655Z,100835.59
2022-12-24T18:01:58.069Z,100745.03
2022-12-24T18:04:24.499Z,100848.81
2022-12-24T18:06:53.894Z,100874.06
2022-12-24T18:09:25.910Z,100865.34
2022-12-24T18:11:52.272Z,100822.22
2022-12-24T18:14:18.606Z,100848.81
2022-12-24T18:16:48.875Z,100845.41
2022-12-24T18:19:15.327Z,100816.97
2022-12-24T18:21:41.702Z,100834.38
2022-12-24T18:24:10.439Z,100813.66
2022-12-24T18:26:36.791Z,100825.81
2022-12-24T18:29:08.474Z,100828.28
2022-12-24T18:31:35.773Z,100832.59
2022-12-24T18:34:04.889Z,100853.19
2022-12-24T18:36:32.468Z,100855.88
2022-12-24T18:38:59.419Z,100839.38
2022-12-24T18:41:28.264Z,100763.63
2022-12-24T18:43:55.977Z,100815.47
2022-12-24T18:46:25.543Z,100846.56
2022-12-24T18:48:54.252Z,100830.91
2022-12-24T18:51:22.894Z,100757.53
2022-12-24T18:53:50.070Z,100847.22
2022-12-24T18:56:22.278Z,100837.78
2022-12-24T18:58:52.078Z,100848.91
2022-12-24T19:01:24.977Z,100817.00
2022-12-24T19:03:51.936Z,100783.34
2022-12-24T19:06:19.696Z,100796.31
2022-12-24T19:09:02.228Z,100821.34
2022-12-24T19:11:31.265Z,100851.34
2022-12-24T19:13:58.521Z,100809.00
2022-12-24T19:16:25.991Z,100807.84
2022-12-24T19:18:52.641Z,100760.31
2022-12-24T19:21:19.147Z,100830.19
2022-12-24T19:23:45.820Z,100842.13
2022-12-24T19:26:13.490Z,100765.38
2022-12-24T19:28:40.388Z,100849.13
2022-12-24T19:31:13.574Z,100848.06
2022-12-24T19:33:43.507Z,100743.75
2022-12-24T19:36:13.885Z,100811.03
2022-12-24T19:38:41.175Z,100769.56
2022-12-24T19:41:13.518Z,100860.06
2022-12-24T19:43:41.953Z,100836.59
2022-12-24T19:46:14.525Z,100841.56
2022-12-24T19:48:42.324Z,100848.56
2022-12-24T19:51:11.836Z,100797.75
2022-12-24T19:53:39.556Z,100829.72
2022-12-24T19:56:06.590Z,100850.44
2022-12-24T19:58:32.981Z,100833.22
2022-12-24T20:01:14.568Z,100856.38
2022-12-24T20:03:42.270Z,100840.88
2022-12-24T20:06:09.013Z,100821.88
2022-12-24T20:08:37.148Z,100865.84
2022-12-24T20:11:09.583Z,100781.66
2022-12-24T20:13:38.258Z,100883.38
2022-12-24T20:16:13.169Z,100882.50
2022-12-24T20:18:40.329Z,100860.72
2022-12-24T20:21:09.507Z,100826.22
2022-12-24T20:23:41.777Z,100871.13
2022-12-24T20:26:12.175Z,100870.28
2022-12-24T20:28:39.466Z,100755.59
2022-12-24T20:31:14.465Z,100857.63
2022-12-24T20:33:42.464Z,100790.44
2022-12-24T20:36:10.174Z,100875.66
2022-12-24T20:38:38.378Z,100842.22
2022-12-24T20:41:05.699Z,100887.19
2022-12-24T20:43:37.169Z,100875.25
2022-12-24T20:46:04.427Z,100873.50
2022-12-24T20:48:31.433Z,100795.94
2022-12-24T20:50:58.101Z,100896.25
2022-12-24T20:53:25.167Z,100894.38
2022-12-24T20:55:53.115Z,100871.13
2022-12-24T20:58:20.584Z,100849.63
2022-12-24T21:00:47.989Z,100895.97
2022-12-24T21:03:15.847Z,100878.00
2022-12-24T21:05:43.228Z,100902.97
2022-12-24T21:08:10.848Z,100904.84
2022-12-24T21:10:38.104Z,100914.38
2022-12-24T21:13:04.919Z,100876.38
2022-12-24T21:15:34.977Z,100900.56
2022-12-24T21:18:09.892Z,100886.63
2022-12-24T21:20:37.065Z,100891.03
2022-12-24T21:23:03.619Z,100875.34
2022-12-24T21:25:30.057Z,100793.47
2022-12-24T21:27:56.542Z,100875.28
2022-12-24T21:30:23.513Z,100896.72
2022-12-24T21:32:50.550Z,100886.47
2022-12-24T21:35:17.226Z,100886.59
2022-12-24T21:37:43.693Z,100877.13
2022-12-24T21:40:10.772Z,100902.03
2022-12-24T21:42:37.648Z,100881.31
2022-12-24T21:45:05.052Z,100787.19
2022-12-24T21:47:31.402Z,100782.91
2022-12-24T21:50:16.391Z,100874.34
2022-12-24T21:52:42.783Z,100862.22
2022-12-24T21:55:09.212Z,100848.34
2022-12-24T21:57:53.828Z,100856.25
2022-12-24T22:00:24.337Z,100866.44
2022-12-24T22:02:53.868Z,100813.59
2022-12-24T22:05:21.376Z,100814.53
2022-12-24T22:08:07.215Z,100854.22
2022-12-24T22:10:51.989Z,100836.84
2022-12-24T22:13:21.493Z,100836.16
2022-12-24T22:15:49.883Z,100782.03
2022-12-24T22:18:18.288Z,100818.09
2022-12-24T22:20:46.392Z,100798.22
2022-12-24T22:23:14.483Z,100820.72
2022-12-24T22:25:41.928Z,100739.59
2022-12-24T22:28:08.330Z,100717.00
2022-12-24T22:30:39.751Z,100795.69
2022-12-24T22:33:07.366Z,100821.69
2022-12-24T22:35:36.684Z,100720.72
2022-12-24T22:38:03.262Z,100831.22
2022-12-24T22:40:29.810Z,100808.81
2022-12-24T22:42:56.234Z,100808.84
2022-12-24T22:45:23.056Z,100780.47
2022-12-24T22:47:49.590Z,100829.69
2022-12-24T22:50:16.978Z,100818.44
2022-12-24T22:52:43.373Z,100809.97
2022-12-24T22:55:10.042Z,100822.06
2022-12-24T22:57:36.443Z,100720.22
2022-12-24T23:00:13.175Z,100797.91
2022-12-24T23:02:39.683Z,100709.63
2022-12-24T23:05:06.454Z,100811.28
2022-12-24T23:07:32.841Z,100767.44
2022-12-24T23:09:59.704Z,100780.28
2022-12-24T23:12:44.787Z,100763.19
2022-12-24T23:15:11.649Z,100771.81
2022-12-24T23:17:38.057Z,100673.44
2022-12-24T23:20:04.900Z,100807.13
2022-12-24T23:22:31.355Z,100780.41
2022-12-24T23:24:57.850Z,100795.97
2022-12-24T23:27:24.556Z,100757.09
2022-12-24T23:29:50.953Z,100776.13
2022-12-24T23:32:17.291Z,100626.94
2022-12-24T23:34:43.742Z,100805.63
2022-12-24T23:37:10.181Z,100796.13
2022-12-24T23:39:36.522Z,100822.22
2022-12-24T23:42:02.948Z,100735.91
2022-12-24T23:44:32.497Z,100807.59
2022-12-24T23:46:59.409Z,100803.34
2022-12-24T23:49:26.682Z,100740.47
2022-12-24T23:51:53.084Z,100767.16
2022-12-24T23:54:19.471Z,100812.91
2022-12-24T23:56:45.824Z,100781.03
2022-12-24T23:59:12.172Z,100820.88
